Time;durP1;ratioP1;P1;durP2;ratioP2;P2;SDS_P1;SDS_P2;PMS_P1;PMS_P2;Temp;Humidity;BMP_temperature;BMP_pressure;BME280_temperature;BME280_humidity;BME280_pressure;Samples;Min_cycle;Max_cycle;Signal;HPM_P1;HPM_P2
2023/04/24 00:00:17;;;;;;;6.10;3.75;;;;;;;;;;4955999;28;20817;-77
2023/04/24 00:02:46;;;;;;;4.93;3.22;;;;;;;;;;4969315;28;20907;-76
2023/04/24 00:05:13;;;;;;;3.50;2.72;;;;;;;;;;4984424;28;21072;-76
2023/04/24 00:07:40;;;;;;;4.45;2.45;;;;;;;;;;4964366;28;20910;-76
2023/04/24 00:10:06;;;;;;;4.05;2.63;;;;;;;;;;4954782;28;20824;-77
2023/04/24 00:12:32;;;;;;;3.90;2.40;;;;;;;;;;4972496;28;20423;-76
2023/04/24 00:14:58;;;;;;;3.83;2.70;;;;;;;;;;4961891;28;20834;-76
2023/04/24 00:17:24;;;;;;;3.60;2.63;;;;;;;;;;4968412;28;20506;-76
2023/04/24 00:19:51;;;;;;;3.88;2.60;;;;;;;;;;4972413;28;20408;-76
2023/04/24 00:22:17;;;;;;;4.95;2.70;;;;;;;;;;4983479;28;20499;-76
2023/04/24 00:24:43;;;;;;;3.58;2.70;;;;;;;;;;4973484;28;20425;-76
2023/04/24 00:27:09;;;;;;;4.15;2.83;;;;;;;;;;4982026;28;20511;-76
2023/04/24 00:29:35;;;;;;;4.50;2.70;;;;;;;;;;4959782;28;20780;-76
2023/04/24 00:32:01;;;;;;;3.67;2.70;;;;;;;;;;4971877;28;20748;-76
2023/04/24 00:34:28;;;;;;;4.32;2.40;;;;;;;;;;4977360;28;20423;-77
2023/04/24 00:36:54;;;;;;;3.47;2.50;;;;;;;;;;4966233;28;20778;-76
2023/04/24 00:39:20;;;;;;;3.07;2.00;;;;;;;;;;4991241;28;20414;-76
2023/04/24 00:41:47;;;;;;;3.05;1.83;;;;;;;;;;4964596;28;20811;-76
2023/04/24 00:44:14;;;;;;;4.95;2.05;;;;;;;;;;4969648;28;20424;-77
2023/04/24 00:46:40;;;;;;;3.10;2.22;;;;;;;;;;4954550;28;20441;-76
2023/04/24 00:49:06;;;;;;;4.00;2.15;;;;;;;;;;4974520;28;20441;-76
2023/04/24 00:51:32;;;;;;;2.97;2.03;;;;;;;;;;4974049;28;20501;-76
2023/04/24 00:54:02;;;;;;;4.15;2.17;;;;;;;;;;4968516;28;20424;-77
2023/04/24 00:56:28;;;;;;;3.40;2.30;;;;;;;;;;4960110;28;20432;-77
2023/04/24 00:58:54;;;;;;;3.25;2.20;;;;;;;;;;4977601;28;20437;-76
2023/04/24 01:01:21;;;;;;;3.30;2.08;;;;;;;;;;4988599;28;20481;-76
2023/04/24 01:03:52;;;;;;;3.40;2.33;;;10.30;99.90;;;;;;4983625;28;20461;-77
2023/04/24 01:06:19;;;;;;;3.00;2.30;;;;;;;;;;4955194;28;20428;-76
2023/04/24 01:08:46;;;;;;;4.10;2.40;;;10.70;99.90;;;;;;4954082;28;20440;-76
2023/04/24 01:11:12;;;;;;;3.22;2.60;;;;;;;;;;4938872;28;20419;-76
2023/04/24 01:13:38;;;;;;;3.50;2.47;;;;;;;;;;4972526;28;20437;-76
2023/04/24 01:16:05;;;;;;;4.47;2.65;;;;;;;;;;4974439;28;20440;-76
2023/04/24 01:18:32;;;;;;;4.67;2.70;;;;;;;;;;4985439;28;20410;-76
2023/04/24 01:20:59;;;;;;;3.80;2.80;;;;;;;;;;4972364;28;20482;-76
2023/04/24 01:23:25;;;;;;;3.40;2.75;;;;;;;;;;4972706;28;20530;-77
2023/04/24 01:25:51;;;;;;;3.65;3.03;;;;;;;;;;4974902;28;20457;-77
2023/04/24 01:28:17;;;;;;;4.00;3.37;;;;;;;;;;4975257;28;20574;-77
2023/04/24 01:30:44;;;;;;;4.97;3.20;;;;;;;;;;4957451;28;20482;-77
2023/04/24 01:33:10;;;;;;;4.80;3.53;;;;;;;;;;4988771;28;20992;-77
2023/04/24 01:35:37;;;;;;;4.38;3.63;;;;;;;;;;4990762;28;20438;-77
2023/04/24 01:38:03;;;;;;;5.68;3.70;;;;;;;;;;4973816;28;20473;-76
2023/04/24 01:40:29;;;;;;;4.43;3.72;;;;;;;;;;4975803;28;20422;-76
2023/04/24 01:42:55;;;;;;;4.80;4.10;;;;;;;;;;4983337;28;20420;-76
2023/04/24 01:45:21;;;;;;;5.43;4.28;;;;;;;;;;4966558;28;20426;-76
2023/04/24 01:47:48;;;;;;;5.88;4.38;;;;;;;;;;4977567;28;20417;-76
2023/04/24 01:50:15;;;;;;;5.72;4.40;;;;;;;;;;4993423;28;20461;-76
2023/04/24 01:52:41;;;;;;;7.03;5.10;;;;;;;;;;4980924;28;20435;-76
2023/04/24 01:55:07;;;;;;;5.70;4.80;;;;;;;;;;4979111;28;20922;-76
2023/04/24 01:57:34;;;;;;;6.63;5.17;;;;;;;;;;4984453;28;20490;-76
2023/04/24 02:00:00;;;;;;;7.80;5.65;;;;;;;;;;4973503;28;21016;-76
2023/04/24 02:02:29;;;;;;;7.57;5.93;;;;;;;;;;4985662;28;21135;-77
2023/04/24 02:04:55;;;;;;;9.05;6.10;;;;;;;;;;4964517;28;20916;-77
2023/04/24 02:07:22;;;;;;;8.90;6.53;;;;;;;;;;4994343;28;20755;-77
2023/04/24 02:09:48;;;;;;;8.55;6.47;;;;;;;;;;4988072;28;20428;-75
2023/04/24 02:12:14;;;;;;;10.38;6.72;;;;;;;;;;4976925;28;20436;-76
2023/04/24 02:14:42;;;;;;;8.82;6.93;;;;;;;;;;4950632;28;20418;-76
2023/04/24 02:17:08;;;;;;;9.43;7.10;;;;;;;;;;4961509;28;20410;-77
2023/04/24 02:19:34;;;;;;;9.98;7.50;;;;;;;;;;4987553;28;21093;-78
2023/04/24 02:22:00;;;;;;;9.93;7.55;;;;;;;;;;4978580;28;20437;-77
2023/04/24 02:24:26;;;;;;;8.95;7.30;;;;;;;;;;4960714;28;20426;-77
2023/04/24 02:26:53;;;;;;;9.83;7.73;;;;;;;;;;4969821;28;20974;-77
2023/04/24 02:29:19;;;;;;;10.50;7.40;;;;;;;;;;4947907;28;20426;-77
2023/04/24 02:31:45;;;;;;;11.07;8.20;;;;;;;;;;4978107;28;20423;-77
2023/04/24 02:34:11;;;;;;;10.88;8.52;;;;;;;;;;4975258;28;20426;-76
2023/04/24 02:36:37;;;;;;;11.38;8.30;;;;;;;;;;4974875;28;20426;-77
2023/04/24 02:39:03;;;;;;;11.82;8.50;;;;;;;;;;4968868;28;20472;-76
2023/04/24 02:41:31;;;;;;;12.00;9.45;;;;;;;;;;4992412;28;20426;-77
2023/04/24 02:43:58;;;;;;;12.52;9.50;;;10.30;99.90;;;;;;4993145;28;20450;-76
2023/04/24 02:46:24;;;;;;;12.73;9.90;;;;;;;;;;4991131;28;20426;-76
2023/04/24 02:48:50;;;;;;;12.50;9.60;;;;;;;;;;4961136;28;20457;-76
2023/04/24 02:51:16;;;;;;;12.27;10.10;;;;;;;;;;4992476;28;20429;-76
2023/04/24 02:53:42;;;;;;;14.20;10.43;;;;;;;;;;4977133;28;20926;-76
2023/04/24 02:56:08;;;;;;;12.70;10.38;;;;;;;;;;4976292;28;20508;-77
2023/04/24 02:58:35;;;;;;;14.55;10.68;;;;;;;;;;4975144;28;20423;-77
2023/04/24 03:01:01;;;;;;;14.23;10.98;;;;;;;;;;4994978;28;20971;-77
2023/04/24 03:03:27;;;;;;;14.52;11.05;;;;;;;;;;4983420;28;20425;-77
2023/04/24 03:05:53;;;;;;;14.70;11.63;;;;;;;;;;4955169;28;20425;-76
2023/04/24 03:08:19;;;;;;;15.15;11.75;;;;;;;;;;4991185;28;20884;-77
2023/04/24 03:10:45;;;;;;;16.05;12.35;;;;;;;;;;4992673;28;20426;-77
2023/04/24 03:13:11;;;;;;;15.47;12.20;;;;;;;;;;4983776;28;20429;-77
2023/04/24 03:15:37;;;;;;;16.85;13.02;;;;;;;;;;4940185;28;20936;-77
2023/04/24 03:18:03;;;;;;;17.80;13.60;;;;;;;;;;4957469;28;20412;-77
2023/04/24 03:20:30;;;;;;;17.00;13.85;;;;;;;;;;4976756;28;20506;-77
2023/04/24 03:22:56;;;;;;;17.90;13.15;;;;;;;;;;4953050;28;20454;-78
2023/04/24 03:25:23;;;;;;;18.25;14.15;;;;;;;;;;4960749;28;20963;-77
2023/04/24 03:27:49;;;;;;;18.67;14.60;;;;;;;;;;4970331;28;20416;-75
2023/04/24 03:30:15;;;;;;;19.15;14.98;;;;;;;;;;4971135;28;20517;-76
2023/04/24 03:32:41;;;;;;;19.52;15.02;;;;;;;;;;4971470;28;20424;-77
2023/04/24 03:35:08;;;;;;;21.38;16.23;;;;;;;;;;4957261;28;20800;-77
2023/04/24 03:37:34;;;;;;;20.70;15.40;;;;;;;;;;4955613;28;20915;-76
2023/04/24 03:40:01;;;;;;;20.73;16.02;;;10.40;99.90;;;;;;4955823;28;20420;-76
2023/04/24 03:42:27;;;;;;;20.85;16.25;;;;;;;;;;4973871;28;20427;-77
2023/04/24 03:44:53;;;;;;;21.20;16.45;;;;;;;;;;4956942;28;20908;-76
2023/04/24 03:47:19;;;;;;;22.27;16.20;;;;;;;;;;4956138;28;20412;-76
2023/04/24 03:49:45;;;;;;;20.80;16.58;;;;;;;;;;4956661;28;20410;-76
2023/04/24 03:52:11;;;;;;;19.92;16.65;;;;;;;;;;4953393;28;20424;-76
2023/04/24 03:54:37;;;;;;;21.45;16.42;;;;;;;;;;4963318;28;20499;-76
2023/04/24 03:57:04;;;;;;;20.60;16.40;;;;;;;;;;4958131;28;20432;-76
2023/04/24 03:59:30;;;;;;;20.63;16.73;;;;;;;;;;4972528;28;20408;-77
2023/04/24 04:01:56;;;;;;;21.45;16.83;;;;;;;;;;4980377;28;20473;-77
2023/04/24 04:04:22;;;;;;;21.35;16.60;;;;;;;;;;4975271;28;20406;-77
2023/04/24 04:06:49;;;;;;;20.33;16.08;;;;;;;;;;4972564;28;20432;-77
2023/04/24 04:09:15;;;;;;;19.33;16.35;;;;;;;;;;4955061;28;20891;-78
2023/04/24 04:11:41;;;;;;;20.33;16.63;;;;;;;;;;4954687;28;20483;-78
2023/04/24 04:14:07;;;;;;;19.67;15.82;;;;;;;;;;4972153;28;20442;-78
2023/04/24 04:16:33;;;;;;;19.30;15.18;;;;;;;;;;4972046;28;20434;-78
2023/04/24 04:18:59;;;;;;;19.55;15.32;;;;;;;;;;4978020;28;20424;-77
2023/04/24 04:21:26;;;;;;;20.13;15.45;;;;;;;;;;4963236;28;20426;-77
2023/04/24 04:23:52;;;;;;;19.33;15.18;;;;;;;;;;4972186;28;20400;-77
2023/04/24 04:26:19;;;;;;;18.05;14.70;;;;;;;;;;4959223;28;20497;-77
2023/04/24 04:28:45;;;;;;;18.35;14.85;;;;;;;;;;4988273;28;20414;-77
2023/04/24 04:31:11;;;;;;;19.38;14.82;;;;;;;;;;4971696;28;20504;-78
2023/04/24 04:33:39;;;;;;;19.40;15.23;;;;;;;;;;4958599;28;20470;-78
2023/04/24 04:36:05;;;;;;;19.50;14.80;;;;;;;;;;4971470;28;20437;-77
2023/04/24 04:38:31;;;;;;;21.10;15.05;;;;;;;;;;4970971;28;20420;-77
2023/04/24 04:40:57;;;;;;;16.02;11.90;;;;;;;;;;4971391;28;20454;-78
2023/04/24 04:43:27;;;;;;;15.57;10.35;;;;;;;;;;4954127;28;20420;-78
2023/04/24 04:45:54;;;;;;;8.93;5.97;;;;;;;;;;4990561;28;20410;-78
2023/04/24 04:48:20;;;;;;;7.13;4.77;;;;;;;;;;4960029;28;20459;-77
2023/04/24 04:50:46;;;;;;;7.18;5.05;;;;;;;;;;4954822;28;20426;-77
2023/04/24 04:53:12;;;;;;;7.93;5.40;;;;;;;;;;4951782;28;20456;-77
2023/04/24 04:55:38;;;;;;;8.60;6.00;;;;;;;;;;4971759;28;20555;-77
2023/04/24 04:58:05;;;;;;;8.82;6.05;;;;;;;;;;4955809;28;20506;-78
2023/04/24 05:00:35;;;;;;;8.43;5.40;;;;;;;;;;4972303;28;20475;-77
2023/04/24 05:03:02;;;;;;;5.93;3.90;;;;;;;;;;4969681;28;20428;-77
2023/04/24 05:05:28;;;;;;;7.95;4.07;;;;;;;;;;4982655;28;20434;-78
2023/04/24 05:07:54;;;;;;;6.90;4.40;;;;;;;;;;4971485;28;20435;-77
2023/04/24 05:10:20;;;;;;;7.40;4.65;;;;;;;;;;4960206;28;20426;-78
2023/04/24 05:12:46;;;;;;;6.97;4.75;;;;;;;;;;4974267;28;20854;-76
2023/04/24 05:15:12;;;;;;;7.33;4.60;;;;;;;;;;4990917;28;20573;-78
2023/04/24 05:17:39;;;;;;;6.40;4.35;;;;;;;;;;4992661;28;20449;-78
2023/04/24 05:20:06;;;;;;;7.32;4.90;;;;;;;;;;4986248;28;20836;-78
2023/04/24 05:22:32;;;;;;;8.13;5.10;;;;;;;;;;4979953;28;20779;-78
2023/04/24 05:24:58;;;;;;;9.48;5.00;;;;;;;;;;4962816;28;20402;-78
2023/04/24 05:27:25;;;;;;;7.07;4.90;;;;;;;;;;4962098;28;20927;-78
2023/04/24 05:29:51;;;;;;;8.07;5.20;;;;;;;;;;4943081;28;20780;-78
2023/04/24 05:32:17;;;;;;;8.90;4.78;;;;;;;;;;4979598;28;20958;-79
2023/04/24 05:34:43;;;;;;;6.30;3.97;;;;;;;;;;4962071;28;20428;-78
2023/04/24 05:37:09;;;;;;;6.85;4.35;;;;;;;;;;4959255;28;20423;-78
2023/04/24 05:39:36;;;;;;;6.75;4.20;;;;;;;;;;4959503;28;20419;-78
2023/04/24 05:42:04;;;;;;;7.40;4.35;;;;;;;;;;4942859;28;20420;-78
2023/04/24 05:44:30;;;;;;;6.80;4.60;;;;;;;;;;4959097;28;20422;-77
2023/04/24 05:46:56;;;;;;;7.35;4.97;;;;;;;;;;4958720;28;20424;-77
2023/04/24 05:49:22;;;;;;;8.32;4.60;;;;;;;;;;4966928;28;20489;-77
2023/04/24 05:51:49;;;;;;;5.45;4.05;;;;;;;;;;4988621;28;20430;-77
2023/04/24 05:54:15;;;;;;;6.47;4.13;;;;;;;;;;4985230;28;20942;-77
2023/04/24 05:56:41;;;;;;;6.72;4.32;;;;;;;;;;4994346;28;20434;-77
2023/04/24 05:59:07;;;;;;;6.60;4.40;;;;;;;;;;4980253;28;20924;-77
2023/04/24 06:01:33;;;;;;;7.65;4.97;;;;;;;;;;4957757;28;20514;-77
2023/04/24 06:04:00;;;;;;;7.97;5.38;;;;;;;;;;4972515;28;20421;-77
2023/04/24 06:06:27;;;;;;;8.40;5.30;;;;;;;;;;4970944;28;20485;-77
2023/04/24 06:08:53;;;;;;;7.70;5.27;;;;;;;;;;4972267;28;20499;-76
2023/04/24 06:11:19;;;;;;;9.45;5.68;;;;;;;;;;4949147;29;20987;-76
2023/04/24 06:13:45;;;;;;;9.20;5.88;;;;;;;;;;4960348;28;20428;-76
2023/04/24 06:16:12;;;;;;;7.78;5.40;;;;;;;;;;4985931;28;20512;-77
2023/04/24 06:18:38;;;;;;;8.33;5.70;;;;;;;;;;4965897;28;20448;-77
2023/04/24 06:21:05;;;;;;;8.02;5.85;;;;;;;;;;4946663;28;20424;-76
2023/04/24 06:23:32;;;;;;;8.90;6.20;;;;;;;;;;4982953;28;20933;-84
2023/04/24 06:25:58;;;;;;;8.57;5.88;;;;;;;;;;4982251;28;20442;-83
2023/04/24 06:28:24;;;;;;;9.60;6.53;;;;;;;;;;4977496;28;20926;-83
2023/04/24 06:30:51;;;;;;;10.35;6.13;;;;;;;;;;4986053;28;20420;-84
2023/04/24 06:33:17;;;;;;;10.07;6.35;;;;;;;;;;4962194;28;20400;-84
2023/04/24 06:35:43;;;;;;;11.93;6.83;;;;;;;;;;4963770;28;20503;-84
2023/04/24 06:38:09;;;;;;;9.98;6.72;;;;;;;;;;4977707;28;20794;-84
2023/04/24 06:40:35;;;;;;;10.52;7.20;;;;;;;;;;4965256;28;20430;-83
2023/04/24 06:43:02;;;;;;;9.60;6.90;;;;;;;;;;4978658;28;20410;-83
2023/04/24 06:45:29;;;;;;;9.77;7.30;;;;;;;;;;4994805;28;20412;-83
2023/04/24 06:47:56;;;;;;;10.05;5.72;;;;;;;;;;4981979;28;20519;-77
2023/04/24 06:50:22;;;;;;;8.93;5.80;;;;;;;;;;4982836;28;20473;-77
2023/04/24 06:52:48;;;;;;;8.45;4.70;;;;;;;;;;4960234;28;20813;-77
2023/04/24 06:55:16;;;;;;;5.80;3.97;;;;;;;;;;4976596;28;20458;-77
2023/04/24 06:57:42;;;;;;;5.68;3.58;;;;;;;;;;4975082;28;20434;-77
2023/04/24 07:00:09;;;;;;;6.70;3.70;;;;;;;;;;4981821;28;20924;-77
2023/04/24 07:02:35;;;;;;;7.78;3.90;;;;;;;;;;4962912;28;20437;-78
2023/04/24 07:05:01;;;;;;;11.38;4.22;;;;;;;;;;4944476;28;20513;-77
2023/04/24 07:07:27;;;;;;;5.57;2.75;;;;;;;;;;4962443;28;20460;-77
2023/04/24 07:09:54;;;;;;;6.60;3.40;;;;;;;;;;4968299;28;20458;-77
2023/04/24 07:12:21;;;;;;;6.63;3.60;;;;;;;;;;4982520;28;20774;-77
2023/04/24 07:14:47;;;;;;;5.90;3.30;;;;;;;;;;4991379;28;20967;-78
2023/04/24 07:17:14;;;;;;;6.72;3.97;;;;;;;;;;4969057;28;20774;-77
2023/04/24 07:19:40;;;;;;;8.15;4.00;;;;;;;;;;4985513;28;20422;-78
2023/04/24 07:22:06;;;;;;;7.90;4.07;;;;;;;;;;4966308;28;20414;-78
2023/04/24 07:24:33;;;;;;;7.45;4.28;;;;;;;;;;4988636;28;20510;-78
2023/04/24 07:27:00;;;;;;;6.57;4.10;;;;;;;;;;4954751;28;20437;-78
2023/04/24 07:29:27;;;;;;;7.87;3.87;;;;;;;;;;5003318;28;20931;-78
2023/04/24 07:31:53;;;;;;;6.05;3.42;;;;;;;;;;4959728;28;20422;-78
2023/04/24 07:34:20;;;;;;;7.88;3.42;;;;;;;;;;4974376;28;20484;-78
2023/04/24 07:36:47;;;;;;;8.25;3.78;;;;;;;;;;4957945;28;20437;-78
2023/04/24 07:39:13;;;;;;;7.03;3.70;;;;;;;;;;4960895;28;20906;-78
2023/04/24 07:41:39;;;;;;;9.75;4.85;;;;;;;;;;4976594;28;20461;-77
2023/04/24 07:44:05;;;;;;;10.73;5.80;;;;;;;;;;4951271;28;20961;-78
2023/04/24 07:46:31;;;;;;;14.40;7.30;;;;;;;;;;4968057;28;20427;-76
2023/04/24 07:49:00;;;;;;;14.13;8.73;;;;;;;;;;4966964;28;20819;-77
2023/04/24 07:51:27;;;;;;;18.58;9.65;;;;;;;;;;4959676;28;20404;-77
2023/04/24 07:53:54;;;;;;;18.92;10.63;;;;;;;;;;4942336;28;20499;-75
2023/04/24 07:56:21;;;;;;;23.42;11.48;;;;;;;;;;4958459;28;20922;-78
2023/04/24 07:58:47;;;;;;;19.55;12.32;;;;;;;;;;4960706;28;20522;-76
2023/04/24 08:01:21;;;;;;;21.65;12.68;;;;;;;;;;5123662;27;20388;-77
2023/04/24 08:03:47;;;;;;;22.35;12.38;;;;;;;;;;5113885;28;20963;-77
2023/04/24 08:06:13;;;;;;;21.07;12.67;;;;;;;;;;5128742;28;20402;-77
2023/04/24 08:08:39;;;;;;;20.13;12.10;;;;;;;;;;5116079;27;20431;-77
2023/04/24 08:11:05;;;;;;;26.08;12.85;;;;;;;;;;5112422;28;20421;-76
2023/04/24 08:13:31;;;;;;;17.52;11.20;;;;;;;;;;5102059;28;20960;-77
2023/04/24 08:15:57;;;;;;;22.33;11.73;;;;;;;;;;5090265;28;20445;-77
2023/04/24 08:18:24;;;;;;;20.05;11.57;;;;;;;;;;5105994;28;20843;-76
2023/04/24 08:20:50;;;;;;;19.98;11.57;;;;;;;;;;5098061;28;20443;-77
2023/04/24 08:23:16;;;;;;;20.10;11.55;;;;;;;;;;5082914;28;20509;-76
2023/04/24 08:25:42;;;;;;;19.27;11.40;;;;;;;;;;5077893;28;20725;-77
2023/04/24 08:28:09;;;;;;;18.90;12.05;;;9.60;99.90;;;;;;5072230;28;20434;-78
2023/04/24 08:30:35;;;;;;;21.37;13.17;;;;;;;;;;5114789;28;20904;-78
2023/04/24 08:33:02;;;;;;;20.95;13.50;;;;;;;;;;5085271;28;20957;-78
2023/04/24 08:35:28;;;;;;;23.70;15.02;;;;;;;;;;5112003;28;20431;-78
2023/04/24 08:37:54;;;;;;;23.23;14.80;;;;;;;;;;5105248;28;20516;-79
2023/04/24 08:40:22;;;;;;;23.00;14.98;;;;;;;;;;5103788;28;20421;-79
2023/04/24 08:42:48;;;;;;;26.20;15.98;;;;;;;;;;5093627;28;20423;-78
2023/04/24 08:45:15;;;;;;;25.00;16.05;;;;;;;;;;5090752;28;20451;-78
2023/04/24 08:47:41;;;;;;;26.90;16.08;;;;;;;;;;5092047;28;20399;-79
2023/04/24 08:50:09;;;;;;;24.83;15.80;;;;;;;;;;5099187;28;20421;-78
2023/04/24 08:52:35;;;;;;;24.20;15.30;;;;;;;;;;5074044;28;20433;-79
2023/04/24 08:55:02;;;;;;;24.55;14.77;;;;;;;;;;5079439;28;20421;-78
2023/04/24 08:57:29;;;;;;;22.33;14.73;;;;;;;;;;5088154;28;20906;-79
2023/04/24 08:59:56;;;;;;;22.90;13.98;;;;;;;;;;5109673;28;20436;-78
2023/04/24 09:02:22;;;;;;;17.70;12.30;;;;;;;;;;5096751;28;20413;-78
2023/04/24 09:04:49;;;;;;;15.55;10.45;;;;;;;;;;5082491;28;20417;-78
2023/04/24 09:07:17;;;;;;;17.90;10.30;;;;;;;;;;5094850;28;20932;-77
2023/04/24 09:09:43;;;;;;;15.10;10.13;;;;;;;;;;5089509;28;20426;-77
2023/04/24 09:12:09;;;;;;;15.20;9.52;;;;;;;;;;5094007;28;20549;-78
2023/04/24 09:14:39;;;;;;;17.07;10.10;;;;;;;;;;5064727;28;20477;-77
2023/04/24 09:17:05;;;;;;;18.13;10.73;;;;;;;;;;5070854;28;20425;-77
2023/04/24 09:19:32;;;;;;;15.05;9.38;;;;;;;;;;5072340;28;20428;-77
2023/04/24 09:21:58;;;;;;;18.58;9.75;;;;;;;;;;5047971;28;20425;-77
2023/04/24 09:24:24;;;;;;;13.98;10.00;;;;;;;;;;5067757;28;20427;-78
2023/04/24 09:27:01;;;;;;;14.93;9.10;;;;;;;;;;5069249;28;20496;-77
2023/04/24 09:29:27;;;;;;;15.88;9.48;;;;;;;;;;5084001;28;20434;-77
2023/04/24 09:31:53;;;;;;;16.60;8.73;;;;;;;;;;5060607;28;20430;-78
2023/04/24 09:34:24;;;;;;;13.88;7.93;;;;;;;;;;5079980;28;20456;-77
2023/04/24 09:36:50;;;;;;;15.82;8.07;;;;;;;;;;5088489;28;20418;-78
2023/04/24 09:39:17;;;;;;;14.27;8.07;;;;;;;;;;5050255;28;20455;-78
2023/04/24 09:41:47;;;;;;;15.30;7.30;;;;;;;;;;5087645;28;20417;-77
2023/04/24 09:44:14;;;;;;;13.98;7.00;;;;;;;;;;5096289;28;20478;-77
2023/04/24 09:46:41;;;;;;;14.40;6.53;;;;;;;;;;5084755;28;20414;-77
2023/04/24 09:49:09;;;;;;;12.45;5.75;;;9.60;99.90;;;;;;5086915;28;20412;-77
2023/04/24 09:51:36;;;;;;;12.45;5.10;;;;;;;;;;5080332;28;20421;-77
2023/04/24 09:54:03;;;;;;;11.55;4.85;;;;;;;;;;5085967;28;20433;-78
2023/04/24 09:56:32;;;;;;;10.70;4.90;;;9.70;99.90;;;;;;5051242;28;20412;-78
2023/04/24 09:59:06;;;;;;;10.85;4.93;;;9.60;99.90;;;;;;5079919;28;20451;-79
2023/04/24 10:01:32;;;;;;;15.07;5.10;;;;;;;;;;5106057;28;20514;-80
2023/04/24 10:03:58;;;;;;;10.30;4.63;;;;;;;;;;5095058;27;20885;-79
2023/04/24 10:06:30;;;;;;;14.35;4.63;;;;;;;;;;5080247;28;20415;-79
2023/04/24 10:08:58;;;;;;;11.18;4.78;;;;;;;;;;5072345;28;20423;-79
2023/04/24 10:11:25;;;;;;;15.75;4.80;;;;;;;;;;5051886;28;20436;-80
2023/04/24 10:13:52;;;;;;;14.88;4.07;;;;;;;;;;5104965;27;20398;-79
2023/04/24 10:16:18;;;;;;;10.63;3.42;;;;;;;;;;5065097;28;20498;-78
2023/04/24 10:18:44;;;;;;;12.68;3.55;;;;;;;;;;5098210;27;20415;-78
2023/04/24 10:21:10;;;;;;;10.10;3.58;;;;;;;;;;5112429;27;20499;-78
2023/04/24 10:23:37;;;;;;;12.38;3.47;;;;;;;;;;5081255;27;20410;-78
2023/04/24 10:26:04;;;;;;;11.77;3.50;;;;;;;;;;5092122;28;20790;-78
2023/04/24 10:28:31;;;;;;;9.82;3.08;;;;;;;;;;5055994;28;20414;-78
2023/04/24 10:30:57;;;;;;;8.13;3.13;;;;;;;;;;5081198;27;20505;-79
2023/04/24 10:33:24;;;;;;;7.18;2.90;;;;;;;;;;5082399;28;20442;-78
2023/04/24 10:35:51;;;;;;;8.93;3.33;;;;;;;;;;5095909;28;20435;-77
2023/04/24 10:38:24;;;;;;;8.02;2.95;;;10.00;99.90;;;;;;5069861;28;20437;-78
2023/04/24 10:40:50;;;;;;;8.70;2.80;;;;;;;;;;5073184;28;20436;-78
2023/04/24 10:43:18;;;;;;;6.78;3.03;;;9.80;99.90;;;;;;5077318;28;20459;-78
2023/04/24 10:46:04;;;;;;;8.20;2.88;;;10.10;99.90;;;;;;5102644;27;20487;-78
2023/04/24 10:48:30;;;;;;;11.68;2.97;;;;;;;;;;5097123;28;20420;-78
2023/04/24 10:50:56;;;;;;;9.10;3.10;;;;;;;;;;5084129;27;20410;-78
2023/04/24 10:53:24;;;;;;;8.57;2.58;;;;;;;;;;5073732;27;20419;-77
2023/04/24 10:55:58;;;;;;;8.97;3.13;;;;;;;;;;5084762;28;20424;-77
2023/04/24 10:58:24;;;;;;;9.13;2.58;;;;;;;;;;5090239;28;20430;-77
2023/04/24 11:00:58;;;;;;;9.70;2.87;;;;;;;;;;5086446;28;20481;-77
2023/04/24 11:03:29;;;;;;;12.27;3.20;;;10.10;99.90;;;;;;5070006;28;20461;-76
2023/04/24 11:06:03;;;;;;;10.75;2.92;;;;;;;;;;5075372;28;20423;-78
2023/04/24 11:08:45;;;;;;;10.00;2.72;;;10.10;99.90;;;;;;5083795;28;20433;-77
2023/04/24 11:11:12;;;;;;;9.27;2.70;;;;;;;;;;5091112;28;20412;-78
2023/04/24 11:13:54;;;;;;;8.85;2.90;;;;;;;;;;5072678;28;20408;-77
2023/04/24 11:16:21;;;;;;;7.82;2.40;;;;;;;;;;5066773;28;20757;-78
2023/04/24 11:19:11;;;;;;;7.07;2.35;;;9.80;99.90;;;;;;5073032;28;20419;-78
2023/04/24 11:21:41;;;;;;;7.65;2.28;;;;;;;;;;5070588;28;20468;-78
2023/04/24 11:24:26;;;;;;;8.43;2.85;;;;;;;;;;5072070;28;20426;-79
2023/04/24 11:26:54;;;;;;;10.02;2.30;;;;;;;;;;5063730;28;20415;-78
2023/04/24 11:29:21;;;;;;;9.00;2.47;;;;;;;;;;5086229;28;20425;-78
2023/04/24 11:31:49;;;;;;;8.20;2.30;;;;;;;;;;5072131;28;20426;-79
2023/04/24 11:34:16;;;;;;;8.45;2.17;;;;;;;;;;5054012;28;20419;-78
2023/04/24 11:36:47;;;;;;;10.02;2.70;;;;;;;;;;5084058;28;20414;-78
2023/04/24 11:39:13;;;;;;;10.77;2.80;;;;;;;;;;5063550;28;20429;-78
2023/04/24 11:41:40;;;;;;;7.07;2.55;;;;;;;;;;5071082;28;20765;-78
2023/04/24 11:44:11;;;;;;;9.50;2.60;;;;;;;;;;5068939;28;20956;-78
2023/04/24 11:46:39;;;;;;;6.55;2.50;;;;;;;;;;5068492;28;20422;-78
2023/04/24 11:49:06;;;;;;;6.68;2.55;;;;;;;;;;5074899;28;20469;-78
2023/04/24 11:51:32;;;;;;;8.68;2.50;;;;;;;;;;5084836;28;20479;-79
2023/04/24 11:53:59;;;;;;;7.05;2.22;;;;;;;;;;5066823;28;20423;-79
2023/04/24 11:56:25;;;;;;;7.35;2.58;;;;;;;;;;5072666;28;20415;-78
2023/04/24 11:58:54;;;;;;;8.95;2.65;;;;;;;;;;5068973;28;20422;-78
2023/04/24 12:01:21;;;;;;;11.70;2.83;;;;;;;;;;5042632;28;22348;-78
2023/04/24 12:03:51;;;;;;;8.40;2.35;;;;;;;;;;5069813;28;20418;-77
2023/04/24 12:06:18;;;;;;;7.78;2.60;;;;;;;;;;5068249;28;20475;-77
2023/04/24 12:08:46;;;;;;;12.75;2.90;;;;;;;;;;5070957;28;20941;-78
2023/04/24 12:11:15;;;;;;;8.02;3.10;;;;;;;;;;5040964;28;20425;-77
2023/04/24 12:13:41;;;;;;;11.52;2.90;;;;;;;;;;5060923;28;20792;-76
2023/04/24 12:16:07;;;;;;;9.48;2.83;;;;;;;;;;5054247;28;20499;-78
2023/04/24 12:18:33;;;;;;;7.22;2.75;;;;;;;;;;5054252;28;20402;-77
2023/04/24 12:21:15;;;;;;;8.02;2.85;;;;;;;;;;5072586;28;20422;-78
2023/04/24 12:23:44;;;;;;;7.28;2.53;;;;;;;;;;5043066;28;20432;-78
2023/04/24 12:26:17;;;;;;;9.32;2.60;;;;;;;;;;5045641;28;20425;-78
2023/04/24 12:28:43;;;;;;;6.50;2.40;;;;;;;;;;5050080;28;20413;-78
2023/04/24 12:31:09;;;;;;;6.03;2.15;;;;;;;;;;5049538;28;20477;-78
2023/04/24 12:33:36;;;;;;;7.65;2.78;;;;;;;;;;5040713;28;20421;-78
2023/04/24 12:36:02;;;;;;;7.53;1.88;;;;;;;;;;5039615;28;20875;-77
2023/04/24 12:38:30;;;;;;;8.33;1.97;;;10.00;99.90;;;;;;5072316;28;20440;-78
2023/04/24 12:41:04;;;;;;;8.27;1.95;;;;;;;;;;5029825;28;20476;-78
2023/04/24 12:43:30;;;;;;;5.93;2.00;;;;;;;;;;5070762;28;20815;-78
2023/04/24 12:45:56;;;;;;;7.05;1.63;;;;;;;;;;5059549;28;20454;-78
2023/04/24 12:48:23;;;;;;;8.83;1.70;;;;;;;;;;5035751;28;20405;-78
2023/04/24 12:50:49;;;;;;;6.95;1.83;;;;;;;;;;5054614;28;20423;-78
2023/04/24 12:53:15;;;;;;;5.78;1.55;;;;;;;;;;5061879;28;20423;-79
2023/04/24 12:55:42;;;;;;;5.40;1.50;;;;;;;;;;5066439;28;20425;-78
2023/04/24 12:58:08;;;;;;;5.17;1.40;;;;;;;;;;5078908;28;20419;-78
2023/04/24 13:00:34;;;;;;;5.45;1.60;;;;;;;;;;5061985;28;20436;-78
2023/04/24 13:03:01;;;;;;;6.07;1.80;;;;;;;;;;5065438;28;20538;-78
2023/04/24 13:05:27;;;;;;;7.07;1.83;;;;;;;;;;5091575;28;20424;-78
2023/04/24 13:07:53;;;;;;;8.45;1.70;;;;;;;;;;5077314;28;20420;-77
2023/04/24 13:10:19;;;;;;;6.47;1.80;;;;;;;;;;5071832;28;20506;-78
2023/04/24 13:12:46;;;;;;;4.10;1.20;;;;;;;;;;5061177;28;20415;-77
2023/04/24 13:15:12;;;;;;;4.57;1.00;;;;;;;;;;5072401;28;20414;-76
2023/04/24 13:17:38;;;;;;;4.75;1.23;;;;;;;;;;5072304;28;20418;-77
2023/04/24 13:20:05;;;;;;;3.58;1.27;;;;;;;;;;5076363;28;20933;-78
2023/04/24 13:22:31;;;;;;;3.10;0.93;;;;;;;;;;5092157;28;20764;-77
2023/04/24 13:24:57;;;;;;;4.10;1.13;;;;;;;;;;5086832;28;20493;-78
2023/04/24 13:27:23;;;;;;;2.58;1.00;;;;;;;;;;5081110;28;20425;-78
2023/04/24 13:29:49;;;;;;;1.80;0.80;;;;;;;;;;5101353;28;20424;-76
2023/04/24 13:32:15;;;;;;;2.15;0.88;;;;;;;;;;5103742;28;20422;-77
2023/04/24 13:34:41;;;;;;;2.83;1.00;;;;;;;;;;5096354;28;20416;-76
2023/04/24 13:37:07;;;;;;;4.90;1.10;;;;;;;;;;5094089;28;20449;-77
2023/04/24 13:39:33;;;;;;;1.83;0.73;;;;;;;;;;5084966;28;20942;-77
2023/04/24 13:42:00;;;;;;;4.85;1.20;;;;;;;;;;5097563;28;20427;-77
2023/04/24 13:44:26;;;;;;;3.47;1.00;;;;;;;;;;5097850;28;20406;-77
2023/04/24 13:46:56;;;;;;;4.37;1.27;;;;;;;;;;5078139;28;20426;-78
2023/04/24 13:49:24;;;;;;;4.10;1.30;;;;;;;;;;5067539;28;20816;-78
2023/04/24 13:51:50;;;;;;;6.15;1.70;;;;;;;;;;5075512;28;20442;-77
2023/04/24 13:54:17;;;;;;;5.63;1.50;;;;;;;;;;5074728;28;20553;-78
2023/04/24 13:56:43;;;;;;;8.25;1.83;;;;;;;;;;5061941;28;20426;-79
2023/04/24 13:59:09;;;;;;;6.82;1.85;;;;;;;;;;5088703;27;20439;-77
2023/04/24 14:01:35;;;;;;;10.57;2.30;;;;;;;;;;5099960;27;20479;-78
2023/04/24 14:04:01;;;;;;;8.35;2.00;;;;;;;;;;5093074;28;20419;-78
2023/04/24 14:06:27;;;;;;;7.00;2.40;;;;;;;;;;5090082;28;20418;-77
2023/04/24 14:08:54;;;;;;;9.70;2.40;;;;;;;;;;5082220;28;20456;-77
2023/04/24 14:11:20;;;;;;;9.32;2.40;;;;;;;;;;5084345;27;20410;-78
2023/04/24 14:13:46;;;;;;;12.93;3.05;;;;;;;;;;5065939;28;20965;-78
2023/04/24 14:16:12;;;;;;;9.25;2.30;;;;;;;;;;5073334;27;20413;-80
2023/04/24 14:18:38;;;;;;;11.07;2.83;;;;;;;;;;5098001;27;20433;-79
2023/04/24 14:21:05;;;;;;;12.52;3.22;;;;;;;;;;5066188;28;20876;-80
2023/04/24 14:23:31;;;;;;;10.82;3.53;;;;;;;;;;5063987;27;20425;-79
2023/04/24 14:25:57;;;;;;;11.95;3.50;;;;;;;;;;5067884;27;20420;-79